Time;durP1;ratioP1;P1;durP2;ratioP2;P2;SDS_P1;SDS_P2;PMS_P1;PMS_P2;Temp;Humidity;BMP_temperature;BMP_pressure;BME280_temperature;BME280_humidity;BME280_pressure;Samples;Min_cycle;Max_cycle;Signal;HPM_P1;HPM_P2
2021/09/12 15:28:48;;;;;;;0.00;0.00;;;;;;;23.05;42.44;101414.66;2610455;31;20408;-58
2021/09/12 15:31:15;;;;;;;0.00;0.00;;;;;;;23.14;42.67;101413.22;2610860;31;20030;-59
2021/09/12 15:33:42;;;;;;;0.00;0.00;;;;;;;23.14;43.06;101415.91;2611062;31;20042;-59
2021/09/12 15:36:09;;;;;;;0.00;0.00;;;;;;;23.09;42.39;101424.19;2609315;31;20843;-59
2021/09/12 15:38:36;;;;;;;0.00;0.00;;;;;;;22.98;42.41;101424.88;2610971;31;20030;-59
2021/09/12 15:41:03;;;;;;;0.00;0.00;;;;;;;22.82;42.44;101418.78;2610038;31;20026;-59
2021/09/12 15:43:30;;;;;;;0.00;0.00;;;;;;;22.68;42.94;101416.09;2608853;31;20034;-60
2021/09/12 15:45:56;;;;;;;0.00;0.00;;;;;;;22.50;43.02;101418.94;2607871;31;20062;-58
2021/09/12 15:48:23;;;;;;;0.00;0.00;;;;;;;22.35;43.82;101425.19;2609070;31;20030;-60
2021/09/12 15:50:50;;;;;;;0.00;0.00;;;;;;;22.20;44.05;101420.78;2609291;31;20319;-59
2021/09/12 15:53:18;;;;;;;0.10;0.10;;;;;;;22.07;44.26;101417.13;2606623;36;20034;-59
2021/09/12 15:55:45;;;;;;;0.05;0.05;;;;;;;21.93;44.19;101421.44;2610062;31;20126;-60
2021/09/12 15:58:12;;;;;;;0.00;0.00;;;;;;;21.80;44.79;101419.63;2612297;31;20038;-59
2021/09/12 16:00:40;;;;;;;0.00;0.00;;;;;;;21.60;44.90;101413.66;2610153;31;20450;-60
2021/09/12 16:03:07;;;;;;;0.00;0.00;;;;;;;21.57;45.27;101410.31;2606595;31;20126;-60
2021/09/12 16:05:34;;;;;;;0.00;0.00;;;;;;;21.48;46.08;101406.38;2609817;31;20038;-59
2021/09/12 16:08:03;;;;;;;0.00;0.00;;;;;;;21.40;45.36;101404.16;2610620;31;20433;-59
2021/09/12 16:10:30;;;;;;;0.00;0.00;;;;;;;21.34;46.28;101401.84;2610123;36;20038;-59
2021/09/12 16:12:59;;;;;;;0.00;0.00;;;;;;;21.25;46.18;101397.03;2610673;31;20106;-60
2021/09/12 16:15:26;;;;;;;0.00;0.00;;;;;;;21.22;46.16;101406.00;2606997;36;20141;-59
2021/09/12 16:17:54;;;;;;;0.00;0.00;;;;;;;21.19;46.48;101408.84;2609829;31;20037;-60
2021/09/12 16:20:21;;;;;;;0.00;0.00;;;;;;;21.14;46.79;101402.94;2605897;36;20027;-61
2021/09/12 16:22:48;;;;;;;0.00;0.00;;;;;;;21.13;46.79;101405.66;2610653;31;20061;-60
2021/09/12 16:25:16;;;;;;;0.00;0.00;;;;;;;21.14;46.92;101396.78;2608510;31;20041;-60
2021/09/12 16:27:43;;;;;;;0.00;0.00;;;;;;;21.17;45.97;101397.44;2607524;36;20097;-59
2021/09/12 16:30:10;;;;;;;0.00;0.00;;;;;;;21.20;46.84;101391.13;2609969;31;20042;-60
2021/09/12 16:32:37;;;;;;;0.00;0.00;;;;;;;21.25;46.53;101394.38;2609803;31;20813;-59
2021/09/12 16:35:05;;;;;;;0.00;0.00;;;;;;;21.12;46.98;101361.47;2612393;31;20042;-59
2021/09/12 16:37:32;;;;;;;0.00;0.00;;;;;;;21.36;46.45;101392.00;2606476;31;20129;-59
2021/09/12 16:39:59;;;;;;;0.00;0.00;;;;;;;21.43;46.58;101392.47;2610578;31;20057;-60
2021/09/12 16:42:26;;;;;;;0.00;0.00;;;;;;;21.48;46.54;101401.06;2607657;31;20562;-60
2021/09/12 16:44:59;;;;;;;0.00;0.00;;;;;;;21.55;46.48;101406.91;2610509;36;20030;-59
2021/09/12 16:47:26;;;;;;;0.00;0.00;;;;;;;21.63;46.16;101409.94;2609396;31;20630;-59
2021/09/12 16:49:53;;;;;;;0.00;0.00;;;;;;;21.66;46.72;101407.13;2609478;31;20034;-59
2021/09/12 16:52:20;;;;;;;0.00;0.00;;;;;;;21.71;46.53;101402.41;2598131;31;20741;-58
2021/09/12 16:54:48;;;;;;;0.00;0.00;;;;;;;21.74;46.25;101403.06;493223;36;10002151;-60
2021/09/12 16:57:15;;;;;;;0.00;0.00;;;;;;;21.77;45.90;101402.03;2610796;31;20125;-59
2021/09/12 16:59:41;;;;;;;0.00;0.00;;;;;;;21.79;46.06;101404.59;2610982;31;20425;-60
2021/09/12 17:02:08;;;;;;;0.00;0.00;;;;;;;21.79;44.99;101399.28;2611555;31;20794;-60
2021/09/12 17:04:36;;;;;;;0.00;0.00;;;;;;;21.70;45.60;101392.72;2612102;31;20053;-60
2021/09/12 17:07:03;;;;;;;0.00;0.00;;;;;;;21.73;45.82;101400.50;2611776;31;20125;-59
2021/09/12 17:09:30;;;;;;;0.10;0.10;;;;;;;21.71;45.91;101405.06;2627377;31;20060;-60
2021/09/12 17:11:57;;;;;;;0.00;0.00;;;;;;;21.66;46.06;101405.31;2610869;31;20038;-60
2021/09/12 17:14:25;;;;;;;0.00;0.00;;;;;;;21.62;46.46;101401.13;2609764;31;20610;-59
2021/09/12 17:16:52;;;;;;;0.00;0.00;;;;;;;21.55;46.36;101405.09;2610532;31;20042;-60
2021/09/12 17:19:19;;;;;;;0.00;0.00;;;;;;;21.51;46.53;101400.88;2610233;31;20042;-58
2021/09/12 17:21:52;;;;;;;0.00;0.00;;;;;;;21.44;46.50;101395.06;2609187;31;20078;-59
2021/09/12 17:24:19;;;;;;;0.00;0.00;;;;;;;21.41;46.98;101400.56;2611791;31;20757;-59
2021/09/12 17:26:47;;;;;;;0.00;0.00;;;;;;;21.35;46.50;101392.94;2610165;31;20129;-59
2021/09/12 17:29:15;;;;;;;0.00;0.00;;;;;;;21.33;46.43;101401.91;2611367;31;20659;-60
2021/09/12 17:31:43;;;;;;;0.00;0.00;;;;;;;21.27;46.68;101400.44;2611105;31;20046;-60
2021/09/12 17:34:14;;;;;;;0.10;0.10;;;;;;;21.19;46.50;101400.88;2608974;31;20034;-58
2021/09/12 17:36:41;;;;;;;;;;;;;;;21.24;46.35;101405.94;2609928;31;20148;-59
2021/09/12 17:39:08;;;;;;;0.00;0.00;;;;;;;21.11;47.01;101402.25;2608670;31;20354;-58
2021/09/12 17:41:35;;;;;;;0.00;0.00;;;;;;;21.04;47.15;101407.06;2610626;31;20041;-59
2021/09/12 17:44:03;;;;;;;0.00;0.00;;;;;;;20.96;47.36;101404.81;2606296;36;20046;-59
2021/09/12 17:46:30;;;;;;;0.00;0.00;;;;;;;20.90;47.45;101410.44;2611102;31;20161;-59
2021/09/12 17:48:56;;;;;;;0.00;0.00;;;;;;;20.84;47.90;101408.13;2610925;31;20749;-58
2021/09/12 17:51:23;;;;;;;0.00;0.00;;;;;;;20.79;47.84;101409.34;2610136;31;20042;-60
2021/09/12 17:53:50;;;;;;;0.00;0.00;;;;;;;20.73;48.22;101408.72;2609704;31;20118;-60
2021/09/12 17:56:21;;;;;;;0.00;0.00;;;;;;;20.68;48.51;101401.91;2609591;31;20069;-59
2021/09/12 17:58:48;;;;;;;0.00;0.00;;;;;;;20.65;48.41;101415.38;2609164;36;20589;-60
2021/09/12 18:01:15;;;;;;;0.00;0.00;;;;;;;20.58;48.53;101408.66;2607974;31;20031;-59
2021/09/12 18:03:42;;;;;;;0.00;0.00;;;;;;;20.44;49.05;101396.97;2610547;31;20535;-59
2021/09/12 18:06:11;;;;;;;0.00;0.00;;;;;;;20.49;48.10;101414.47;2610353;31;21240;-59
2021/09/12 18:08:40;;;;;;;0.00;0.00;;;;;;;20.40;48.44;101408.66;2610917;31;20035;-60
2021/09/12 18:11:07;;;;;;;0.00;0.00;;;;;;;20.37;49.21;101414.13;2609340;31;20035;-59
2021/09/12 18:13:34;;;;;;;0.00;0.00;;;;;;;20.33;49.57;101417.91;2609676;31;20628;-61
2021/09/12 18:16:01;;;;;;;0.00;0.00;;;;;;;20.29;49.62;101424.28;2612047;31;20138;-58
2021/09/12 18:18:28;;;;;;;0.00;0.00;;;;;;;20.23;49.17;101427.28;2606456;31;20061;-58
2021/09/12 18:20:55;;;;;;;0.00;0.00;;;;;;;20.17;49.61;101431.09;2612188;31;20039;-58
2021/09/12 18:23:23;;;;;;;0.00;0.00;;;;;;;20.14;49.91;101425.09;2608646;31;20037;-59
2021/09/12 18:25:50;;;;;;;0.00;0.00;;;;;;;20.07;49.32;101419.25;2608015;36;20032;-61
2021/09/12 18:28:18;;;;;;;0.00;0.00;;;;;;;19.92;49.83;101402.31;2607104;36;20041;-58
2021/09/12 18:30:44;;;;;;;0.00;0.00;;;;;;;19.96;49.50;101417.09;2609898;31;20034;-61
2021/09/12 18:33:13;;;;;;;0.00;0.00;;;;;;;19.93;50.09;101417.28;2609573;36;20042;-58
2021/09/12 18:35:48;;;;;;;0.00;0.00;;;;;;;19.88;49.71;101413.16;2608254;31;20058;-61
2021/09/12 18:38:18;;;;;;;0.00;0.00;;;;;;;19.84;49.41;101407.13;2610461;31;20076;-59
2021/09/12 18:40:46;;;;;;;0.00;0.00;;;;;;;19.70;49.56;101394.56;2606987;31;20486;-62
2021/09/12 18:43:16;;;;;;;0.00;0.00;;;;;;;19.72;50.20;101407.75;2609290;31;20062;-58
2021/09/12 18:45:45;;;;;;;0.00;0.00;;;;;;;19.68;50.37;101403.53;2609526;31;20634;-59
2021/09/12 18:48:12;;;;;;;0.00;0.00;;;;;;;19.63;50.33;101405.56;2609672;31;20039;-59
2021/09/12 18:50:40;;;;;;;0.00;0.00;;;;;;;19.61;50.29;101410.06;2609316;31;20030;-62
2021/09/12 18:53:08;;;;;;;0.00;0.00;;;;;;;19.55;50.49;101405.88;2612121;31;20037;-61
2021/09/12 18:55:35;;;;;;;0.00;0.00;;;;;;;19.51;50.56;101412.25;2612562;31;20927;-59
2021/09/12 18:58:02;;;;;;;0.00;0.00;;;;;;;19.49;50.72;101410.63;2610403;31;20026;-58
2021/09/12 19:00:29;;;;;;;0.00;0.00;;;;;;;19.44;50.70;101411.72;2612015;31;20031;-58
2021/09/12 19:02:56;;;;;;;0.00;0.00;;;;;;;19.41;50.96;101409.22;2609531;31;20042;-59
2021/09/12 19:05:27;;;;;;;0.00;0.00;;;;;;;19.38;51.18;101417.31;2608814;31;20044;-59
2021/09/12 19:07:56;;;;;;;0.00;0.00;;;;;;;19.34;51.28;101418.38;2613543;31;20064;-58
2021/09/12 19:10:26;;;;;;;0.00;0.00;;;;;;;19.31;51.03;101418.56;2610011;31;20110;-58
2021/09/12 19:12:54;;;;;;;0.00;0.00;;;;;;;19.27;51.06;101414.31;2612262;31;20030;-61
2021/09/12 19:15:23;;;;;;;0.00;0.00;;;;;;;19.24;51.59;101411.81;2626204;31;20041;-61
2021/09/12 19:17:51;;;;;;;0.00;0.00;;;;;;;19.18;51.33;101412.09;2612446;31;20030;-61
2021/09/12 19:20:19;;;;;;;0.00;0.00;;;;;;;19.17;51.68;101427.13;2606619;36;20045;-60
2021/09/12 19:22:46;;;;;;;0.00;0.00;;;;;;;19.14;51.84;101421.13;2610570;31;20038;-59
2021/09/12 19:25:14;;;;;;;0.00;0.00;;;;;;;19.09;51.89;101418.69;2612002;31;20038;-61
2021/09/12 19:27:42;;;;;;;0.00;0.00;;;;;;;19.07;52.31;101417.06;2609466;36;20038;-60
2021/09/12 19:30:11;;;;;;;0.00;0.00;;;;;;;19.03;52.33;101413.69;2612377;31;20034;-61
2021/09/12 19:32:40;;;;;;;0.00;0.00;;;;;;;19.01;51.93;101414.66;2612612;31;20065;-61
2021/09/12 19:35:09;;;;;;;;;;;;;;;19.02;50.65;101417.25;2610640;31;20053;-60
2021/09/12 19:37:37;;;;;;;0.00;0.00;;;;;;;18.93;52.61;101413.25;2610348;31;20037;-60
2021/09/12 19:40:10;;;;;;;0.00;0.00;;;;;;;18.90;53.17;101418.66;2612796;31;20198;-61
2021/09/12 19:42:38;;;;;;;0.10;0.10;;;;;;;18.87;52.79;101424.13;2605850;36;20038;-60
2021/09/12 19:45:06;;;;;;;0.00;0.00;;;;;;;18.79;53.48;101415.66;2608713;31;20553;-60
2021/09/12 19:47:33;;;;;;;0.00;0.00;;;;;;;18.80;52.99;101421.81;2608990;31;20044;-61
2021/09/12 19:50:00;;;;;;;0.00;0.00;;;;;;;18.77;53.41;101436.06;2609417;31;20038;-61
2021/09/12 19:52:27;;;;;;;0.03;0.03;;;;;;;18.73;53.50;101433.63;2611016;31;20035;-58
2021/09/12 19:54:54;;;;;;;0.00;0.00;;;;;;;18.65;53.80;101423.31;2613051;31;20046;-59
2021/09/12 19:57:21;;;;;;;0.00;0.00;;;;;;;18.67;52.87;101432.94;2611649;36;20034;-60
2021/09/12 19:59:48;;;;;;;0.00;0.00;;;;;;;18.65;53.27;101425.97;2610319;31;20038;-60
2021/09/12 20:02:16;;;;;;;0.00;0.00;;;;;;;18.62;53.50;101428.78;2610880;36;20030;-61
2021/09/12 20:04:43;;;;;;;;;;;;;;;18.66;51.69;101431.22;2611728;31;20179;-62
2021/09/12 20:07:10;;;;;;;0.00;0.00;;;;;;;18.60;53.23;101435.91;2610705;31;19954;-61
2021/09/12 20:09:37;;;;;;;0.00;0.00;;;;;;;18.57;53.32;101436.06;2612823;31;20034;-60
2021/09/12 20:12:05;;;;;;;0.00;0.00;;;;;;;18.54;53.88;101430.88;2609987;36;20041;-61
2021/09/12 20:14:32;;;;;;;;;;;;;;;18.57;52.24;101436.06;2613460;31;20037;-60
2021/09/12 20:16:59;;;;;;;0.00;0.00;;;;;;;18.52;54.31;101438.03;2612875;31;19974;-61
2021/09/12 20:19:26;;;;;;;0.00;0.00;;;;;;;18.48;54.05;101441.75;2611465;31;20039;-60
2021/09/12 20:21:53;;;;;;;0.00;0.00;;;;;;;18.45;53.75;101432.16;2611982;31;20561;-60
2021/09/12 20:24:20;;;;;;;0.00;0.00;;;;;;;18.39;54.05;101433.28;2609061;31;20125;-60
2021/09/12 20:26:48;;;;;;;0.00;0.00;;;;;;;18.38;54.27;101434.19;2610108;31;20030;-60
2021/09/12 20:29:15;;;;;;;0.00;0.00;;;;;;;18.35;54.32;101437.00;2612212;31;20038;-61
2021/09/12 20:31:42;;;;;;;0.00;0.00;;;;;;;18.31;54.01;101440.69;2611473;31;20049;-60
2021/09/12 20:34:09;;;;;;;0.00;0.00;;;;;;;18.24;54.54;101426.00;2612444;36;20023;-61
2021/09/12 20:36:36;;;;;;;0.00;0.00;;;;;;;18.28;53.94;101440.81;2611756;31;20034;-61
2021/09/12 20:39:04;;;;;;;0.00;0.00;;;;;;;18.26;54.49;101437.38;2612372;31;20441;-60
2021/09/12 20:41:31;;;;;;;0.00;0.00;;;;;;;18.25;54.00;101430.38;2611127;31;20041;-60
2021/09/12 20:43:58;;;;;;;0.00;0.00;;;;;;;18.22;53.86;101430.50;2612027;31;20574;-60
2021/09/12 20:46:25;;;;;;;0.00;0.00;;;;;;;18.21;54.05;101433.22;2613313;31;20035;-62
2021/09/12 20:48:55;;;;;;;0.00;0.00;;;;;;;18.18;54.03;101423.63;2613796;31;20039;-60
2021/09/12 20:51:22;;;;;;;0.00;0.00;;;;;;;18.17;54.32;101421.91;2610025;31;20059;-60
2021/09/12 20:53:49;;;;;;;0.00;0.00;;;;;;;18.05;54.46;101406.59;2613395;31;20041;-60
2021/09/12 20:56:17;;;;;;;0.00;0.00;;;;;;;18.11;54.38;101416.91;2610983;31;20668;-61
2021/09/12 20:58:44;;;;;;;0.00;0.00;;;;;;;18.08;54.77;101423.16;2613756;31;20110;-61
2021/09/12 21:01:11;;;;;;;0.10;0.10;;;;;;;18.04;55.05;101418.06;2609659;36;20046;-60
2021/09/12 21:03:38;;;;;;;0.00;0.00;;;;;;;18.02;54.38;101412.00;2611353;31;20045;-60
2021/09/12 21:06:05;;;;;;;0.00;0.00;;;;;;;17.96;54.92;101412.25;2610190;31;20098;-60
2021/09/12 21:08:32;;;;;;;0.00;0.00;;;;;;;17.94;54.59;101411.44;2610599;31;20536;-59
2021/09/12 21:10:59;;;;;;;0.00;0.00;;;;;;;17.91;55.14;101414.22;2609041;36;20031;-61
2021/09/12 21:13:26;;;;;;;0.00;0.00;;;;;;;17.74;55.26;101394.66;2611478;31;20177;-60
2021/09/12 21:15:56;;;;;;;0.00;0.00;;;;;;;17.80;54.70;101402.34;2612890;31;20947;-60
2021/09/12 21:18:23;;;;;;;0.00;0.00;;;;;;;17.77;54.88;101412.16;2614528;31;20038;-61
2021/09/12 21:20:50;;;;;;;0.00;0.00;;;;;;;17.71;54.68;101407.97;2617928;31;20064;-60
2021/09/12 21:23:17;;;;;;;0.00;0.00;;;;;;;17.67;55.24;101418.72;2609320;31;20034;-61
2021/09/12 21:25:44;;;;;;;0.00;0.00;;;;;;;17.61;55.33;101418.03;2609475;36;20040;-60
2021/09/12 21:28:11;;;;;;;0.00;0.00;;;;;;;17.58;55.30;101422.56;2611007;31;20031;-60
2021/09/12 21:30:38;;;;;;;0.00;0.00;;;;;;;17.54;55.33;101426.28;2613298;31;20042;-60
2021/09/12 21:33:06;;;;;;;0.00;0.00;;;;;;;17.51;55.58;101429.88;2609674;36;20034;-60
2021/09/12 21:35:33;;;;;;;0.00;0.00;;;;;;;17.49;55.83;101422.97;2610391;31;20037;-60
2021/09/12 21:38:00;;;;;;;0.00;0.00;;;;;;;17.44;55.83;101420.50;2612665;36;20122;-60
2021/09/12 21:40:28;;;;;;;0.00;0.00;;;;;;;17.42;55.69;101416.19;2613641;31;20043;-61
2021/09/12 21:42:55;;;;;;;0.00;0.00;;;;;;;17.44;56.08;101419.66;2611521;31;20030;-60
2021/09/12 21:45:22;;;;;;;0.00;0.00;;;;;;;17.43;55.92;101423.19;2612100;36;20037;-60
2021/09/12 21:47:49;;;;;;;0.00;0.00;;;;;;;17.42;55.99;101421.47;2609091;36;20039;-60
2021/09/12 21:50:16;;;;;;;0.00;0.00;;;;;;;17.42;56.30;101418.84;2612044;31;20035;-60
2021/09/12 21:52:43;;;;;;;0.00;0.00;;;;;;;17.41;56.57;101415.34;2612365;31;20041;-61
2021/09/12 21:55:11;;;;;;;0.03;0.03;;;;;;;17.40;56.31;101410.13;2612455;31;20041;-59
2021/09/12 21:57:38;;;;;;;0.00;0.00;;;;;;;17.29;56.58;101387.66;2609208;31;20562;-60
2021/09/12 22:00:19;;;;;;;0.00;0.00;;;;;;;17.40;55.68;101407.50;2611062;31;20038;-61
2021/09/12 22:02:48;;;;;;;0.00;0.00;;;;;;;17.36;56.57;101407.59;2610705;31;20157;-61
2021/09/12 22:05:16;;;;;;;0.00;0.00;;;;;;;17.33;56.33;101407.69;2611893;31;20054;-61
2021/09/12 22:07:44;;;;;;;0.00;0.00;;;;;;;17.31;56.50;101403.41;2612373;31;20070;-60
2021/09/12 22:10:11;;;;;;;0.00;0.00;;;;;;;17.27;56.63;101400.03;2612976;31;20062;-59
2021/09/12 22:12:38;;;;;;;0.00;0.00;;;;;;;17.24;56.17;101397.53;2612208;31;20042;-60
2021/09/12 22:15:07;;;;;;;0.00;0.00;;;;;;;17.21;56.41;101397.63;2614248;31;20034;-61
2021/09/12 22:17:38;;;;;;;0.00;0.00;;;;;;;17.17;56.33;101396.03;2613212;31;20560;-60
2021/09/12 22:20:08;;;;;;;0.00;0.00;;;;;;;17.14;56.66;101384.75;2612724;31;20630;-61
2021/09/12 22:22:36;;;;;;;0.00;0.00;;;;;;;17.11;57.25;101391.00;2611821;31;20034;-60
2021/09/12 22:25:04;;;;;;;0.00;0.00;;;;;;;17.08;56.44;101391.09;2609984;31;20168;-60
2021/09/12 22:27:32;;;;;;;0.00;0.00;;;;;;;16.99;56.94;101375.66;2614008;31;20034;-60
2021/09/12 22:30:02;;;;;;;0.00;0.00;;;;;;;16.99;57.18;101386.22;2611366;31;20130;-61
2021/09/12 22:32:31;;;;;;;0.00;0.00;;;;;;;16.93;56.35;101370.59;2611379;31;20114;-60
2021/09/12 22:34:58;;;;;;;0.00;0.00;;;;;;;16.87;56.36;101376.97;2613128;36;20155;-61
2021/09/12 22:37:25;;;;;;;0.00;0.00;;;;;;;16.82;56.98;101373.63;2611313;31;20033;-61
2021/09/12 22:39:52;;;;;;;0.00;0.00;;;;;;;16.67;56.21;101359.22;2611723;31;20098;-61
2021/09/12 22:42:19;;;;;;;0.00;0.00;;;;;;;16.70;56.38;101374.94;2607630;36;22298;-60
2021/09/12 22:44:46;;;;;;;0.00;0.00;;;;;;;16.63;56.38;101368.19;2610669;31;20034;-60
2021/09/12 22:47:13;;;;;;;0.00;0.00;;;;;;;16.56;56.43;101371.94;2610743;31;20037;-60
2021/09/12 22:49:41;;;;;;;0.00;0.00;;;;;;;16.50;56.88;101366.91;2613392;31;20042;-60
2021/09/12 22:52:09;;;;;;;0.00;0.00;;;;;;;16.44;56.39;101367.13;2609796;31;20157;-60
2021/09/12 22:54:36;;;;;;;0.00;0.00;;;;;;;16.38;56.93;101367.38;2611711;31;20037;-60
2021/09/12 22:57:03;;;;;;;0.00;0.00;;;;;;;16.30;56.75;101365.84;2611180;36;20556;-60
2021/09/12 22:59:30;;;;;;;0.00;0.00;;;;;;;16.25;56.96;101366.94;2610494;31;20038;-59
2021/09/12 23:01:58;;;;;;;0.00;0.00;;;;;;;16.11;56.98;101354.22;2612013;31;20071;-60
2021/09/12 23:04:25;;;;;;;0.00;0.00;;;;;;;16.12;57.00;101363.88;2611961;31;20027;-60
2021/09/12 23:06:52;;;;;;;0.00;0.00;;;;;;;16.07;57.16;101355.28;2610417;31;20655;-60
2021/09/12 23:09:19;;;;;;;0.00;0.00;;;;;;;15.97;57.10;101351.25;2611197;36;20038;-60
2021/09/12 23:11:47;;;;;;;0.00;0.00;;;;;;;15.96;56.61;101349.50;2612990;36;20733;-60
2021/09/12 23:14:14;;;;;;;0.00;0.00;;;;;;;15.90;57.17;101350.56;2612818;31;20030;-61
2021/09/12 23:16:41;;;;;;;0.00;0.00;;;;;;;15.84;57.73;101345.53;2613199;31;20043;-60
2021/09/12 23:19:08;;;;;;;0.00;0.00;;;;;;;15.80;57.12;101339.50;2611928;31;20038;-60
2021/09/12 23:21:36;;;;;;;0.00;0.00;;;;;;;15.70;57.01;101335.44;2611768;31;20038;-60
2021/09/12 23:24:03;;;;;;;0.00;0.00;;;;;;;15.70;57.58;101335.44;2611429;36;20042;-60
2021/09/12 23:26:30;;;;;;;0.00;0.00;;;;;;;15.64;57.31;101333.03;2613228;31;20041;-59
2021/09/12 23:29:00;;;;;;;0.00;0.00;;;;;;;15.52;58.31;101312.38;2613909;31;20134;-60
2021/09/12 23:31:27;;;;;;;0.00;0.00;;;;;;;15.54;60.12;101324.53;2612622;31;20041;-59
2021/09/12 23:33:54;;;;;;;0.00;0.00;;;;;;;15.51;60.36;101326.41;2613403;31;20146;-60
2021/09/12 23:36:21;;;;;;;0.00;0.00;;;;;;;15.47;60.17;101327.44;2612945;31;20433;-60
2021/09/12 23:38:48;;;;;;;0.00;0.00;;;;;;;15.43;60.52;101317.94;2611591;31;20122;-59
2021/09/12 23:41:15;;;;;;;0.00;0.00;;;;;;;15.39;59.86;101321.56;2613583;31;20037;-60
2021/09/12 23:43:42;;;;;;;0.00;0.00;;;;;;;15.35;59.71;101312.03;2612719;31;20580;-60
2021/09/12 23:46:10;;;;;;;0.00;0.00;;;;;;;15.31;59.93;101313.94;2612234;31;20030;-59
2021/09/12 23:48:37;;;;;;;0.00;0.00;;;;;;;15.28;61.44;101306.97;2613901;31;20551;-60
2021/09/12 23:51:04;;;;;;;0.00;0.00;;;;;;;15.24;60.00;101302.72;2631805;31;20034;-60
2021/09/12 23:53:31;;;;;;;0.00;0.00;;;;;;;15.22;61.77;101299.28;2612511;31;20065;-60
2021/09/12 23:55:58;;;;;;;0.00;0.00;;;;;;;15.21;61.06;101302.00;2612235;31;20034;-60
2021/09/12 23:58:25;;;;;;;0.00;0.00;;;;;;;15.18;61.12;101296.81;2612207;31;20667;-60
